Time;durP1;ratioP1;P1;durP2;ratioP2;P2;SDS_P1;SDS_P2;PMS_P1;PMS_P2;Temp;Humidity;BMP_temperature;BMP_pressure;BME280_temperature;BME280_humidity;BME280_pressure;Samples;Min_cycle;Max_cycle;Signal;HPM_P1;HPM_P2
2021/10/18 00:00:12;;;;;;;;;;;;;;;21.32;54.91;101568.41;2092247;28;1003;-58
2021/10/18 00:01:12;;;;;;;;;;;;;;;21.28;55.47;101562.22;2092281;28;1889;-60
2021/10/18 00:02:12;;;;;;;;;;;;;;;21.30;55.48;101562.19;2092450;28;949;-59
2021/10/18 00:03:12;;;;;;;;;;;;;;;21.30;54.94;101562.19;2092383;28;961;-59
2021/10/18 00:04:13;;;;;;;;;;;;;;;21.31;54.58;101569.34;2092391;28;977;-59
2021/10/18 00:05:13;;;;;;;;;;;;;;;21.30;55.03;101564.88;2092500;28;772;-59
2021/10/18 00:06:14;;;;;;;;;;;;;;;21.31;55.21;101567.53;2090916;28;1530;-59
2021/10/18 00:07:14;;;;;;;;;;;;;;;21.28;54.90;101564.94;2084143;28;1330;-60
2021/10/18 00:08:14;;;;;;;;;;;;;;;21.30;54.67;101570.25;2084113;28;846;-59
2021/10/18 00:09:14;;;;;;;;;;;;;;;21.28;55.57;101572.09;2083902;28;1074;-59
2021/10/18 00:10:15;;;;;;;;;;;;;;;21.27;55.59;101570.34;2084153;28;1041;-59
2021/10/18 00:11:15;;;;;;;;;;;;;;;21.28;55.04;101562.22;2084039;28;1241;-59
2021/10/18 00:12:15;;;;;;;;;;;;;;;21.27;55.41;101567.63;2084094;28;923;-59
2021/10/18 00:13:15;;;;;;;;;;;;;;;21.28;55.41;101569.41;2084151;28;926;-59
2021/10/18 00:14:16;;;;;;;;;;;;;;;21.29;55.52;101576.56;2083994;28;974;-59
2021/10/18 00:15:17;;;;;;;;;;;;;;;21.29;55.67;101569.41;2084042;28;1044;-59
2021/10/18 00:16:17;;;;;;;;;;;;;;;21.26;55.71;101569.47;2083429;28;1040;-59
2021/10/18 00:17:17;;;;;;;;;;;;;;;21.29;55.11;101579.28;2083433;28;806;-60
2021/10/18 00:18:17;;;;;;;;;;;;;;;21.27;54.90;101575.72;2084084;28;882;-59
2021/10/18 00:19:17;;;;;;;;;;;;;;;21.29;54.95;101573.88;2084117;28;778;-59
2021/10/18 00:20:18;;;;;;;;;;;;;;;21.25;54.91;101577.56;2083934;28;993;-60
2021/10/18 00:21:18;;;;;;;;;;;;;;;21.25;54.93;101577.56;2084038;28;1906;-59
2021/10/18 00:22:18;;;;;;;;;;;;;;;21.28;54.94;101572.09;2083987;28;993;-60
2021/10/18 00:23:19;;;;;;;;;;;;;;;21.26;55.08;101576.66;2083684;28;1059;-60
2021/10/18 00:24:19;;;;;;;;;;;;;;;21.27;55.57;101581.13;2084061;28;772;-59
2021/10/18 00:25:19;;;;;;;;;;;;;;;21.28;55.01;101583.78;2083990;28;1008;-60
2021/10/18 00:26:19;;;;;;;;;;;;;;;21.26;55.79;101584.72;2084018;28;1036;-59
2021/10/18 00:27:19;;;;;;;;;;;;;;;21.25;54.84;101582.97;2083777;28;910;-59
2021/10/18 00:28:20;;;;;;;;;;;;;;;21.25;54.75;101583.88;2083983;28;1052;-59
2021/10/18 00:29:20;;;;;;;;;;;;;;;21.26;55.43;101579.34;2083938;28;1016;-59
2021/10/18 00:30:21;;;;;;;;;;;;;;;21.24;55.23;101576.69;2083967;28;855;-59
2021/10/18 00:31:21;;;;;;;;;;;;;;;21.27;55.14;101584.72;2083935;28;1202;-60
2021/10/18 00:32:21;;;;;;;;;;;;;;;21.26;55.66;101582.03;2083930;28;839;-59
2021/10/18 00:33:21;;;;;;;;;;;;;;;21.24;55.57;101584.78;2083828;28;770;-59
2021/10/18 00:34:22;;;;;;;;;;;;;;;21.26;55.08;101590.13;2084021;28;990;-59
2021/10/18 00:35:22;;;;;;;;;;;;;;;21.24;55.09;101584.78;2083903;28;1086;-59
2021/10/18 00:36:22;;;;;;;;;;;;;;;21.23;54.67;101585.72;2083953;28;1072;-60
2021/10/18 00:37:22;;;;;;;;;;;;;;;21.25;54.85;101581.16;2083884;28;1127;-59
2021/10/18 00:38:22;;;;;;;;;;;;;;;21.24;54.77;101589.28;2083703;28;867;-59
2021/10/18 00:39:22;;;;;;;;;;;;;;;21.24;55.25;101590.19;2083878;28;980;-60
2021/10/18 00:40:23;;;;;;;;;;;;;;;21.27;55.02;101591.88;2083891;28;702;-59
2021/10/18 00:41:23;;;;;;;;;;;;;;;21.25;54.91;101593.75;2083851;28;1890;-59
2021/10/18 00:42:23;;;;;;;;;;;;;;;21.23;55.76;101595.59;2083945;28;890;-59
2021/10/18 00:43:23;;;;;;;;;;;;;;;21.25;55.05;101593.75;2083843;28;1048;-59
2021/10/18 00:44:24;;;;;;;;;;;;;;;21.24;54.94;101600.03;2083790;28;776;-59
2021/10/18 00:45:24;;;;;;;;;;;;;;;21.25;54.89;101600.03;2083883;28;957;-59
2021/10/18 00:46:24;;;;;;;;;;;;;;;21.24;54.78;101595.56;2083787;28;801;-59
2021/10/18 00:47:24;;;;;;;;;;;;;;;21.25;54.91;101607.22;2083857;28;985;-60
2021/10/18 00:48:25;;;;;;;;;;;;;;;21.24;55.59;101602.75;2083642;28;858;-59
2021/10/18 00:49:25;;;;;;;;;;;;;;;21.25;54.88;101609.91;2083647;28;1040;-60
2021/10/18 00:50:25;;;;;;;;;;;;;;;21.27;55.11;101608.06;2083851;28;857;-59
2021/10/18 00:51:26;;;;;;;;;;;;;;;21.25;55.35;101607.22;2083161;28;790;-59
2021/10/18 00:52:27;;;;;;;;;;;;;;;21.25;55.15;101615.28;2083055;28;906;-60
2021/10/18 00:53:27;;;;;;;;;;;;;;;21.25;54.62;101620.69;2083746;28;890;-59
2021/10/18 00:54:27;;;;;;;;;;;;;;;21.25;54.85;101610.81;2083772;28;772;-59
2021/10/18 00:55:28;;;;;;;;;;;;;;;21.25;54.92;101608.13;2083783;28;927;-59
2021/10/18 00:56:28;;;;;;;;;;;;;;;21.24;54.78;101610.81;2083755;28;854;-59
2021/10/18 00:57:29;;;;;;;;;;;;;;;21.23;55.02;101614.44;2083807;28;775;-60
2021/10/18 00:58:29;;;;;;;;;;;;;;;21.23;55.22;101612.66;2083373;28;776;-60
2021/10/18 00:59:30;;;;;;;;;;;;;;;21.22;54.98;101610.88;2083719;28;937;-59
2021/10/18 01:00:30;;;;;;;;;;;;;;;21.24;55.57;101613.53;2083641;28;981;-59
2021/10/18 01:01:31;;;;;;;;;;;;;;;21.22;55.27;101610.88;2083817;28;1894;-59
2021/10/18 01:02:31;;;;;;;;;;;;;;;21.23;55.58;101609.06;2083714;28;839;-59
2021/10/18 01:03:31;;;;;;;;;;;;;;;21.23;55.70;101612.66;2083609;28;1049;-59
2021/10/18 01:04:31;;;;;;;;;;;;;;;21.23;55.52;101611.75;2083642;28;945;-59
2021/10/18 01:05:35;;;;;;;;;;;;;;;21.23;55.31;101609.97;2083723;28;855;-59
2021/10/18 01:06:35;;;;;;;;;;;;;;;21.24;55.07;101617.13;2083518;28;1343;-59
2021/10/18 01:07:35;;;;;;;;;;;;;;;;;;2083693;28;988;-59
2021/10/18 01:08:36;;;;;;;;;;;;;;;21.22;54.91;101615.38;2083571;28;914;-59
2021/10/18 01:09:36;;;;;;;;;;;;;;;21.23;54.70;101615.34;2083557;28;1063;-59
2021/10/18 01:10:36;;;;;;;;;;;;;;;21.23;55.21;101615.34;2083651;28;1220;-59
2021/10/18 01:11:36;;;;;;;;;;;;;;;;;;2083645;28;1001;-59
2021/10/18 01:12:37;;;;;;;;;;;;;;;21.20;56.01;101614.56;2083700;28;800;-59
2021/10/18 01:13:37;;;;;;;;;;;;;;;21.19;55.63;101621.72;2083611;28;851;-59
2021/10/18 01:14:37;;;;;;;;;;;;;;;21.19;55.69;101619.03;2083560;28;846;-59
2021/10/18 01:15:37;;;;;;;;;;;;;;;21.18;55.27;101615.47;2083642;28;984;-59
2021/10/18 01:16:38;;;;;;;;;;;;;;;21.17;55.73;101624.47;2083592;28;874;-59
2021/10/18 01:17:38;;;;;;;;;;;;;;;21.21;55.75;101618.97;2083579;28;965;-59
2021/10/18 01:18:38;;;;;;;;;;;;;;;21.22;55.35;101623.44;2083493;28;679;-59
2021/10/18 01:19:38;;;;;;;;;;;;;;;21.23;54.62;101622.53;2083593;28;858;-59
2021/10/18 01:20:39;;;;;;;;;;;;;;;21.22;55.45;101626.16;2083586;28;854;-59
2021/10/18 01:21:39;;;;;;;;;;;;;;;21.21;55.05;101632.44;2083568;28;1013;-59
2021/10/18 01:22:40;;;;;;;;;;;;;;;21.20;55.18;101623.50;2083552;28;846;-59
2021/10/18 01:23:40;;;;;;;;;;;;;;;21.22;55.31;101626.16;2083443;28;997;-59
2021/10/18 01:24:40;;;;;;;;;;;;;;;21.18;55.57;101628.94;2083498;28;823;-60
2021/10/18 01:25:40;;;;;;;;;;;;;;;21.20;55.01;101622.63;2083460;28;776;-60
2021/10/18 01:26:40;;;;;;;;;;;;;;;;;;2083504;28;866;-59
2021/10/18 01:27:40;;;;;;;;;;;;;;;21.22;55.12;101629.75;2083623;28;1001;-59
2021/10/18 01:28:41;;;;;;;;;;;;;;;;;;2083469;28;1044;-59
2021/10/18 01:29:41;;;;;;;;;;;;;;;21.20;55.89;101628.03;2083535;28;997;-59
2021/10/18 01:30:41;;;;;;;;;;;;;;;21.22;55.24;101629.75;2083557;28;852;-60
2021/10/18 01:31:41;;;;;;;;;;;;;;;21.20;55.57;101623.50;2083211;28;1032;-60
2021/10/18 01:32:43;;;;;;;;;;;;;;;21.20;54.94;101625.31;2083538;28;826;-59
2021/10/18 01:33:43;;;;;;;;;;;;;;;21.23;54.98;101631.50;2083508;28;815;-59
2021/10/18 01:34:43;;;;;;;;;;;;;;;21.20;55.12;101628.03;2083468;28;1330;-59
2021/10/18 01:35:43;;;;;;;;;;;;;;;21.17;55.10;101635.25;2083464;28;756;-59
2021/10/18 01:36:44;;;;;;;;;;;;;;;21.20;54.81;101622.63;2083430;28;790;-60
2021/10/18 01:37:44;;;;;;;;;;;;;;;21.22;55.54;101626.16;2091618;28;2073;-59
2021/10/18 01:38:45;;;;;;;;;;;;;;;21.20;55.61;101626.19;2091687;28;866;-59
2021/10/18 01:39:45;;;;;;;;;;;;;;;;;;2091692;28;989;-59
2021/10/18 01:40:45;;;;;;;;;;;;;;;;;;2091640;28;1898;-59
2021/10/18 01:41:45;;;;;;;;;;;;;;;21.17;55.84;101635.25;2091729;28;1001;-59
2021/10/18 01:42:45;;;;;;;;;;;;;;;21.18;54.84;101642.41;2091664;28;756;-59
2021/10/18 01:43:46;;;;;;;;;;;;;;;21.18;56.03;101634.34;2091695;28;910;-59
2021/10/18 01:44:46;;;;;;;;;;;;;;;21.18;55.14;101633.44;2091680;28;894;-59
2021/10/18 01:45:46;;;;;;;;;;;;;;;21.19;55.76;101637.91;2091685;28;957;-60
2021/10/18 01:46:46;;;;;;;;;;;;;;;21.18;55.28;101633.44;2091483;28;849;-59
2021/10/18 01:47:47;;;;;;;;;;;;;;;21.17;55.63;101635.25;2091501;28;1160;-60
2021/10/18 01:48:47;;;;;;;;;;;;;;;21.19;55.79;101635.19;2091647;28;870;-60
2021/10/18 01:49:47;;;;;;;;;;;;;;;21.19;55.26;101632.50;2090989;28;894;-60
2021/10/18 01:50:47;;;;;;;;;;;;;;;21.17;55.56;101634.34;2091044;28;918;-59
2021/10/18 01:51:47;;;;;;;;;;;;;;;21.19;55.27;101640.59;2091624;28;934;-59
2021/10/18 01:52:49;;;;;;;;;;;;;;;21.18;55.85;101637.03;2091552;28;910;-59
2021/10/18 01:53:49;;;;;;;;;;;;;;;21.17;55.62;101634.34;2091620;28;795;-59
2021/10/18 01:54:50;;;;;;;;;;;;;;;21.19;55.75;101637.91;2091397;28;1012;-59
2021/10/18 01:55:50;;;;;;;;;;;;;;;21.17;55.64;101631.66;2091540;28;878;-59
2021/10/18 01:56:50;;;;;;;;;;;;;;;21.21;55.56;101637.84;2091578;28;826;-59
2021/10/18 01:57:51;;;;;;;;;;;;;;;21.18;55.42;101636.13;2091590;28;1032;-59
2021/10/18 01:58:51;;;;;;;;;;;;;;;21.16;55.12;101640.66;2091564;28;810;-60
2021/10/18 01:59:51;;;;;;;;;;;;;;;21.17;55.77;101637.94;2091042;28;989;-59
2021/10/18 02:00:51;;;;;;;;;;;;;;;21.18;55.68;101642.41;2090565;28;1882;-59
2021/10/18 02:01:52;;;;;;;;;;;;;;;21.14;55.62;101642.50;2091024;28;855;-59
2021/10/18 02:02:52;;;;;;;;;;;;;;;21.18;54.74;101642.41;2091473;28;791;-59
2021/10/18 02:03:52;;;;;;;;;;;;;;;21.16;55.88;101646.94;2091373;28;1095;-59
2021/10/18 02:04:52;;;;;;;;;;;;;;;21.16;55.15;101646.03;2091504;28;949;-59
2021/10/18 02:05:52;;;;;;;;;;;;;;;21.17;55.35;101645.13;2091586;28;760;-59
2021/10/18 02:06:53;;;;;;;;;;;;;;;21.19;54.90;101643.28;2091148;28;939;-59
2021/10/18 02:07:53;;;;;;;;;;;;;;;21.16;55.94;101644.25;2091575;28;965;-59
2021/10/18 02:08:54;;;;;;;;;;;;;;;21.15;55.41;101650.56;2091565;28;782;-59
2021/10/18 02:09:54;;;;;;;;;;;;;;;21.15;54.82;101649.66;2090746;28;1360;-59
2021/10/18 02:10:54;;;;;;;;;;;;;;;21.16;55.55;101644.25;2091060;28;894;-59
2021/10/18 02:11:54;;;;;;;;;;;;;;;21.16;55.85;101649.66;2091276;28;973;-59
2021/10/18 02:12:55;;;;;;;;;;;;;;;21.17;55.56;101648.72;2091507;28;778;-59
2021/10/18 02:13:55;;;;;;;;;;;;;;;21.15;55.20;101646.97;2091500;28;850;-59
2021/10/18 02:14:55;;;;;;;;;;;;;;;21.17;55.77;101654.13;2091274;28;865;-59
2021/10/18 02:15:55;;;;;;;;;;;;;;;21.17;55.63;101656.81;2091512;28;830;-60
2021/10/18 02:16:56;;;;;;;;;;;;;;;21.16;55.15;101649.66;2091484;28;978;-59
2021/10/18 02:17:56;;;;;;;;;;;;;;;21.14;55.35;101651.47;2091504;28;741;-59
2021/10/18 02:18:56;;;;;;;;;;;;;;;21.15;55.84;101649.66;2091464;28;961;-60
2021/10/18 02:19:56;;;;;;;;;;;;;;;21.15;55.12;101652.34;2091336;28;1173;-59
2021/10/18 02:21:00;;;;;;;;;;;;;;;21.15;55.38;101650.56;2091362;28;1909;-59
2021/10/18 02:22:00;;;;;;;;;;;;;;;21.17;55.17;101658.59;2091431;28;881;-60
2021/10/18 02:23:01;;;;;;;;;;;;;;;21.14;55.40;101661.34;2091174;28;965;-59
2021/10/18 02:24:01;;;;;;;;;;;;;;;21.14;55.31;101662.25;2091522;28;784;-59
2021/10/18 02:25:03;;;;;;;;;;;;;;;21.17;55.20;101661.28;2091465;28;985;-59
2021/10/18 02:26:03;;;;;;;;;;;;;;;21.18;55.97;101665.75;2090974;28;1227;-60
2021/10/18 02:27:03;;;;;;;;;;;;;;;21.16;55.00;101659.53;2091493;28;928;-60
2021/10/18 02:28:04;;;;;;;;;;;;;;;21.17;56.02;101661.28;2091429;28;977;-59
2021/10/18 02:29:04;;;;;;;;;;;;;;;21.18;55.13;101668.44;2091522;28;826;-60
2021/10/18 02:30:05;;;;;;;;;;;;;;;21.16;54.79;101675.69;2091425;28;903;-59
2021/10/18 02:31:05;;;;;;;;;;;;;;;21.13;55.81;101665.88;2091165;28;1387;-59
2021/10/18 02:32:05;;;;;;;;;;;;;;;21.14;55.24;101664.97;2091316;28;767;-59
2021/10/18 02:33:05;;;;;;;;;;;;;;;21.17;55.89;101677.47;2091447;28;981;-60
2021/10/18 02:34:06;;;;;;;;;;;;;;;21.16;55.25;101667.59;2091271;28;851;-59
2021/10/18 02:35:07;;;;;;;;;;;;;;;21.15;55.44;101668.53;2091237;28;981;-59
2021/10/18 02:36:07;;;;;;;;;;;;;;;21.15;55.67;101666.72;2091371;28;941;-59
2021/10/18 02:37:07;;;;;;;;;;;;;;;21.16;55.83;101673.91;2088060;28;1201;-58
2021/10/18 02:38:07;;;;;;;;;;;;;;;21.19;55.48;101675.63;2083057;28;854;-60
2021/10/18 02:39:08;;;;;;;;;;;;;;;21.17;55.80;101678.34;2083140;28;1005;-59
2021/10/18 02:40:08;;;;;;;;;;;;;;;21.15;55.15;101680.19;2083071;28;693;-59
2021/10/18 02:41:09;;;;;;;;;;;;;;;21.13;55.84;101679.34;2082983;28;1902;-60
2021/10/18 02:42:09;;;;;;;;;;;;;;;21.16;55.32;101671.19;2083197;28;768;-60
2021/10/18 02:43:09;;;;;;;;;;;;;;;21.15;56.10;101673.91;2082949;28;1032;-59
2021/10/18 02:44:09;;;;;;;;;;;;;;;21.15;55.25;101682.91;2083111;28;807;-60
2021/10/18 02:45:10;;;;;;;;;;;;;;;21.15;55.90;101682.91;2083123;28;1008;-59
2021/10/18 02:46:10;;;;;;;;;;;;;;;21.15;55.26;101685.59;2082841;28;980;-59
2021/10/18 02:47:10;;;;;;;;;;;;;;;21.16;55.59;101690.06;2083007;28;1191;-60
2021/10/18 02:48:12;;;;;;;;;;;;;;;21.16;54.70;101695.44;2083076;28;985;-59
2021/10/18 02:49:12;;;;;;;;;;;;;;;21.16;55.41;101690.06;2083167;28;780;-60
2021/10/18 02:50:13;;;;;;;;;;;;;;;21.14;55.23;101673.03;2083134;28;776;-60
2021/10/18 02:51:13;;;;;;;;;;;;;;;21.13;55.57;101638.94;2083072;28;875;-59
2021/10/18 02:52:13;;;;;;;;;;;;;;;21.14;55.87;101635.31;2083093;28;1142;-59
2021/10/18 02:53:13;;;;;;;;;;;;;;;21.16;55.08;101633.47;2083136;28;914;-59
2021/10/18 02:54:13;;;;;;;;;;;;;;;21.14;56.01;101635.31;2082921;28;969;-59
2021/10/18 02:55:14;;;;;;;;;;;;;;;21.16;55.37;101636.19;2083038;28;1993;-59
2021/10/18 02:56:14;;;;;;;;;;;;;;;21.17;55.35;101634.34;2083115;28;1001;-59
2021/10/18 02:57:14;;;;;;;;;;;;;;;21.17;54.98;101618.19;2082811;28;859;-59
2021/10/18 02:58:14;;;;;;;;;;;;;;;21.13;55.59;101641.63;2083073;28;1114;-59
2021/10/18 02:59:14;;;;;;;;;;;;;;;21.18;55.35;101706.16;2083100;28;755;-60
2021/10/18 03:00:14;;;;;;;;;;;;;;;21.17;55.63;101699.91;2082993;28;848;-60
2021/10/18 03:01:15;;;;;;;;;;;;;;;21.16;55.03;101695.44;2083027;28;1893;-59
2021/10/18 03:02:17;;;;;;;;;;;;;;;21.15;55.38;101701.75;2083032;28;898;-59
2021/10/18 03:03:17;;;;;;;;;;;;;;;21.14;55.09;101691.91;2082876;28;890;-60
2021/10/18 03:04:18;;;;;;;;;;;;;;;21.13;55.46;101694.59;2083046;28;1033;-59
2021/10/18 03:05:18;;;;;;;;;;;;;;;21.15;55.35;101690.97;2083021;28;998;-59
2021/10/18 03:06:18;;;;;;;;;;;;;;;21.15;55.43;101682.00;2082840;28;807;-59
2021/10/18 03:07:18;;;;;;;;;;;;;;;21.15;55.23;101687.38;2083088;28;918;-59
2021/10/18 03:08:18;;;;;;;;;;;;;;;21.13;55.82;101686.53;2082915;28;791;-59
2021/10/18 03:09:19;;;;;;;;;;;;;;;21.14;55.51;101681.13;2082888;28;1218;-59
2021/10/18 03:10:20;;;;;;;;;;;;;;;21.14;55.84;101688.31;2083066;28;970;-59
2021/10/18 03:11:20;;;;;;;;;;;;;;;21.14;55.29;101694.59;2082689;28;1307;-60
2021/10/18 03:12:20;;;;;;;;;;;;;;;21.16;54.65;101706.22;2083731;28;807;-59
2021/10/18 03:13:20;;;;;;;;;;;;;;;21.14;55.50;101709.84;2084622;28;1044;-59
2021/10/18 03:14:20;;;;;;;;;;;;;;;21.13;55.82;101709.00;2084597;28;815;-60
2021/10/18 03:15:20;;;;;;;;;;;;;;;21.15;55.18;101709.84;2084565;28;787;-59
2021/10/18 03:16:21;;;;;;;;;;;;;;;21.15;55.00;101711.63;2084428;28;1028;-59
2021/10/18 03:17:21;;;;;;;;;;;;;;;21.14;55.05;101707.16;2084367;28;736;-59
2021/10/18 03:18:21;;;;;;;;;;;;;;;21.13;54.86;101706.28;2084548;28;1203;-60
2021/10/18 03:19:21;;;;;;;;;;;;;;;21.12;55.37;101701.81;2084566;28;1024;-60
2021/10/18 03:20:21;;;;;;;;;;;;;;;21.15;55.67;101709.84;2084477;28;981;-59
2021/10/18 03:21:22;;;;;;;;;;;;;;;21.16;54.98;101702.63;2084532;28;1919;-59
2021/10/18 03:22:22;;;;;;;;;;;;;;;21.15;55.71;101684.69;2084090;28;792;-59
2021/10/18 03:23:22;;;;;;;;;;;;;;;21.14;55.58;101658.66;2084513;28;1197;-59
2021/10/18 03:24:22;;;;;;;;;;;;;;;21.12;55.96;101658.72;2084495;28;769;-59
2021/10/18 03:25:23;;;;;;;;;;;;;;;21.13;55.17;101663.19;2084555;28;977;-59
2021/10/18 03:26:23;;;;;;;;;;;;;;;21.15;55.17;101663.13;2084509;28;973;-59
2021/10/18 03:27:23;;;;;;;;;;;;;;;21.14;55.67;101667.66;2084205;28;793;-60
2021/10/18 03:28:23;;;;;;;;;;;;;;;21.15;55.20;101668.53;2084356;28;1296;-59
2021/10/18 03:29:23;;;;;;;;;;;;;;;21.15;55.73;101669.44;2084445;28;776;-59
2021/10/18 03:30:23;;;;;;;;;;;;;;;21.15;55.33;101669.44;2084465;28;910;-59
2021/10/18 03:31:23;;;;;;;;;;;;;;;21.14;55.73;101681.13;2084451;28;1024;-59
2021/10/18 03:32:24;;;;;;;;;;;;;;;21.16;55.54;101676.59;2084418;28;989;-59
2021/10/18 03:33:27;;;;;;;;;;;;;;;21.14;55.45;101674.84;2084437;28;823;-59
2021/10/18 03:34:27;;;;;;;;;;;;;;;21.17;55.62;101677.47;2084406;28;799;-60
2021/10/18 03:35:28;;;;;;;;;;;;;;;21.14;55.81;101685.59;2084224;28;855;-59
2021/10/18 03:36:28;;;;;;;;;;;;;;;21.15;55.37;101674.81;2084366;28;1035;-60
2021/10/18 03:37:28;;;;;;;;;;;;;;;21.16;54.77;101678.38;2090309;28;1448;-59
2021/10/18 03:38:28;;;;;;;;;;;;;;;21.18;55.33;101665.75;2092544;28;932;-59
2021/10/18 03:39:28;;;;;;;;;;;;;;;21.15;55.67;101668.53;2092665;28;858;-60
2021/10/18 03:40:28;;;;;;;;;;;;;;;21.15;55.48;101664.03;2092610;28;1020;-60
2021/10/18 03:41:29;;;;;;;;;;;;;;;21.16;55.60;101678.38;2092500;28;1901;-59
2021/10/18 03:42:29;;;;;;;;;;;;;;;21.14;56.08;101680.22;2092603;28;890;-59
2021/10/18 03:43:29;;;;;;;;;;;;;;;21.14;55.28;101680.22;2092521;28;1031;-60
2021/10/18 03:44:29;;;;;;;;;;;;;;;21.14;55.22;101681.13;2092521;28;993;-59
2021/10/18 03:45:29;;;;;;;;;;;;;;;21.15;55.82;101673.91;2092671;28;699;-60
2021/10/18 03:46:29;;;;;;;;;;;;;;;21.17;55.28;101672.97;2092482;28;855;-60
2021/10/18 03:47:30;;;;;;;;;;;;;;;21.16;55.35;101673.91;2092614;28;1021;-59
2021/10/18 03:48:30;;;;;;;;;;;;;;;21.14;55.69;101689.19;2092500;28;1344;-60
2021/10/18 03:49:30;;;;;;;;;;;;;;;21.15;54.68;101684.69;2092321;28;823;-59
2021/10/18 03:50:30;;;;;;;;;;;;;;;21.14;55.23;101681.13;2092541;28;759;-59
2021/10/18 03:51:31;;;;;;;;;;;;;;;21.15;55.13;101690.97;2092524;28;1024;-59
2021/10/18 03:52:31;;;;;;;;;;;;;;;21.17;55.58;101686.44;2092504;28;787;-59
2021/10/18 03:53:32;;;;;;;;;;;;;;;21.15;55.49;101682.91;2092555;28;970;-59
2021/10/18 03:54:32;;;;;;;;;;;;;;;21.16;55.30;101690.06;2092447;28;846;-59
2021/10/18 03:55:32;;;;;;;;;;;;;;;21.15;55.71;101673.91;2092482;28;985;-59
2021/10/18 03:56:32;;;;;;;;;;;;;;;21.15;55.11;101682.91;2092602;28;860;-60
2021/10/18 03:57:33;;;;;;;;;;;;;;;21.16;55.14;101686.47;2092459;28;748;-59
2021/10/18 03:58:33;;;;;;;;;;;;;;;21.14;55.67;101680.22;2091904;28;999;-60
2021/10/18 03:59:33;;;;;;;;;;;;;;;21.14;55.33;101686.50;2091985;28;852;-60
2021/10/18 04:00:33;;;;;;;;;;;;;;;21.14;55.79;101688.31;2092454;28;989;-59
2021/10/18 04:01:33;;;;;;;;;;;;;;;21.13;56.63;101698.22;2092408;28;1947;-59
2021/10/18 04:02:34;;;;;;;;;;;;;;;21.08;56.32;101673.19;2092253;28;795;-60
2021/10/18 04:03:34;;;;;;;;;;;;;;;21.11;57.78;101656.94;2092434;28;921;-59
2021/10/18 04:04:34;;;;;;;;;;;;;;;21.71;56.75;101659.13;2092425;28;826;-60
2021/10/18 04:05:35;;;;;;;;;;;;;;;21.89;57.13;101665.88;2092335;28;851;-59
2021/10/18 04:06:35;;;;;;;;;;;;;;;21.98;57.74;101664.75;2091037;28;1312;-59
2021/10/18 04:07:38;;;;;;;;;;;;;;;22.08;57.96;101668.97;2083746;28;803;-59
2021/10/18 04:08:39;;;;;;;;;;;;;;;22.16;57.76;101674.16;2084240;28;823;-60
2021/10/18 04:09:40;;;;;;;;;;;;;;;22.27;57.85;101672.06;2084008;28;1034;-59
2021/10/18 04:10:40;;;;;;;;;;;;;;;22.37;56.69;101680.78;2084123;28;830;-61
2021/10/18 04:11:41;;;;;;;;;;;;;;;22.44;56.70;101695.91;2084026;28;1048;-60
2021/10/18 04:12:41;;;;;;;;;;;;;;;22.47;56.37;101706.63;2084127;28;993;-60
2021/10/18 04:13:42;;;;;;;;;;;;;;;22.57;56.13;101712.66;2084154;28;718;-60
2021/10/18 04:14:42;;;;;;;;;;;;;;;22.65;55.35;101707.91;2083961;28;989;-59
2021/10/18 04:15:42;;;;;;;;;;;;;;;22.70;55.23;101717.72;2084227;28;826;-60
2021/10/18 04:16:43;;;;;;;;;;;;;;;22.79;54.90;101709.34;2084058;28;855;-60
2021/10/18 04:17:43;;;;;;;;;;;;;;;22.77;55.05;101695.88;2083964;28;985;-59
2021/10/18 04:18:43;;;;;;;;;;;;;;;22.83;54.49;101681.31;2084116;28;872;-60
2021/10/18 04:19:43;;;;;;;;;;;;;;;22.88;54.25;101686.56;2083882;28;985;-60
2021/10/18 04:20:44;;;;;;;;;;;;;;;22.94;54.03;101683.69;2084004;28;764;-59
2021/10/18 04:21:44;;;;;;;;;;;;;;;22.96;53.45;101679.13;2084018;28;1907;-60
2021/10/18 04:22:46;;;;;;;;;;;;;;;22.97;53.69;101697.09;2083661;28;779;-59
2021/10/18 04:23:46;;;;;;;;;;;;;;;23.00;53.78;101688.00;2083961;28;879;-59
2021/10/18 04:24:46;;;;;;;;;;;;;;;23.01;53.16;101696.09;2084179;28;855;-60
2021/10/18 04:25:47;;;;;;;;;;;;;;;23.08;52.12;101691.38;2083833;28;855;-60
2021/10/18 04:26:47;;;;;;;;;;;;;;;23.04;51.72;101692.38;2083966;28;1005;-59
2021/10/18 04:27:47;;;;;;;;;;;;;;;23.02;52.16;101697.84;2084036;28;838;-60
2021/10/18 04:28:47;;;;;;;;;;;;;;;23.06;51.31;101696.81;2084029;28;918;-59
2021/10/18 04:29:47;;;;;;;;;;;;;;;23.10;51.39;101700.31;2084057;28;1198;-59
2021/10/18 04:30:47;;;;;;;;;;;;;;;23.10;50.93;101705.72;2083978;28;823;-60
2021/10/18 04:31:48;;;;;;;;;;;;;;;23.08;50.81;101702.16;2083890;28;973;-59
2021/10/18 04:32:48;;;;;;;;;;;;;;;23.01;50.43;101700.59;2083985;28;803;-60
2021/10/18 04:33:48;;;;;;;;;;;;;;;23.01;50.57;101706.88;2083930;28;1024;-59
2021/10/18 04:34:48;;;;;;;;;;;;;;;23.07;49.66;101705.81;2084079;28;756;-59
2021/10/18 04:35:48;;;;;;;;;;;;;;;23.00;50.22;101709.63;2083973;28;970;-60
2021/10/18 04:36:48;;;;;;;;;;;;;;;23.01;49.60;101708.69;2083661;28;1221;-59
2021/10/18 04:37:48;;;;;;;;;;;;;;;22.98;49.06;101712.38;2083997;28;863;-60
2021/10/18 04:38:49;;;;;;;;;;;;;;;22.97;49.00;101720.50;2084013;28;1029;-59
2021/10/18 04:39:49;;;;;;;;;;;;;;;23.00;48.79;101720.44;2083785;28;763;-59
2021/10/18 04:40:49;;;;;;;;;;;;;;;23.01;48.36;101714.09;2083849;28;1961;-60
2021/10/18 04:41:49;;;;;;;;;;;;;;;22.98;47.84;101716.88;2083946;28;839;-60
2021/10/18 04:42:50;;;;;;;;;;;;;;;23.03;48.34;101714.94;2083740;28;969;-59
2021/10/18 04:43:50;;;;;;;;;;;;;;;23.03;47.82;101709.53;2083974;28;790;-60
2021/10/18 04:44:50;;;;;;;;;;;;;;;22.99;48.16;101718.66;2083833;28;973;-59
2021/10/18 04:45:50;;;;;;;;;;;;;;;23.05;48.49;101718.47;2083919;28;902;-59
2021/10/18 04:46:50;;;;;;;;;;;;;;;23.11;47.85;101712.88;2083912;28;969;-59
2021/10/18 04:47:51;;;;;;;;;;;;;;;23.06;48.00;101714.84;2083919;28;973;-59
2021/10/18 04:48:51;;;;;;;;;;;;;;;23.08;47.93;101719.28;2083839;28;879;-59
2021/10/18 04:49:51;;;;;;;;;;;;;;;23.12;47.61;101714.66;2083927;28;890;-59
2021/10/18 04:50:51;;;;;;;;;;;;;;;23.17;47.85;101718.09;2083726;28;810;-59
2021/10/18 04:51:52;;;;;;;;;;;;;;;23.19;47.59;101721.66;2083678;28;772;-60
2021/10/18 04:52:52;;;;;;;;;;;;;;;23.20;48.57;101725.25;2083869;28;851;-60
2021/10/18 04:53:52;;;;;;;;;;;;;;;23.19;48.61;101715.38;2083709;28;1033;-59
2021/10/18 04:54:52;;;;;;;;;;;;;;;23.26;48.34;101719.66;2083773;28;989;-60
2021/10/18 04:55:52;;;;;;;;;;;;;;;23.23;47.74;101723.38;2083871;28;784;-60
2021/10/18 04:56:52;;;;;;;;;;;;;;;23.26;47.81;101718.78;2083770;28;897;-59
2021/10/18 04:57:54;;;;;;;;;;;;;;;23.26;48.59;101713.38;2083167;28;1132;-60
2021/10/18 04:58:54;;;;;;;;;;;;;;;23.27;47.69;101713.31;2083254;28;1000;-59
2021/10/18 04:59:54;;;;;;;;;;;;;;;23.24;48.57;101719.72;2083701;28;814;-60
2021/10/18 05:00:56;;;;;;;;;;;;;;;23.28;47.54;101715.09;2083732;28;1897;-59
2021/10/18 05:01:56;;;;;;;;;;;;;;;23.31;47.52;101711.44;2083729;28;811;-59
2021/10/18 05:02:56;;;;;;;;;;;;;;;23.29;47.65;101710.59;2083734;28;1036;-60
2021/10/18 05:03:56;;;;;;;;;;;;;;;23.31;47.72;101715.00;2083773;28;1081;-59
2021/10/18 05:04:57;;;;;;;;;;;;;;;23.30;47.43;101701.56;2083603;28;815;-59
2021/10/18 05:05:57;;;;;;;;;;;;;;;23.30;47.56;101706.97;2083745;28;1338;-60
2021/10/18 05:06:57;;;;;;;;;;;;;;;23.30;46.79;101696.16;2083730;28;961;-59
2021/10/18 05:08:05;;;;;;;;;;;;;;;23.31;47.07;101706.03;2083441;28;818;-59
2021/10/18 05:09:05;;;;;;;;;;;;;;;23.29;47.24;101695.25;2083726;28;823;-59
2021/10/18 05:10:08;;;;;;;;;;;;;;;23.28;47.65;101701.59;2083536;28;1121;-60
2021/10/18 05:11:08;;;;;;;;;;;;;;;23.29;47.80;101705.19;2083646;28;1330;-60
2021/10/18 05:12:09;;;;;;;;;;;;;;;23.35;47.16;101700.47;2083719;28;973;-59
2021/10/18 05:13:10;;;;;;;;;;;;;;;23.32;47.28;101713.19;2083446;28;772;-59
2021/10/18 05:14:10;;;;;;;;;;;;;;;23.31;47.87;101695.22;2083566;28;928;-59
2021/10/18 05:15:10;;;;;;;;;;;;;;;23.35;47.13;101705.00;2083707;28;1172;-59
2021/10/18 05:16:10;;;;;;;;;;;;;;;23.35;46.98;101705.00;2082949;28;819;-60
2021/10/18 05:17:10;;;;;;;;;;;;;;;23.35;47.00;101713.09;2083172;28;973;-59
2021/10/18 05:18:11;;;;;;;;;;;;;;;23.32;47.22;101714.06;2083669;28;1048;-59